Coyote, New Mexico
Current Conditions -  °F | °C
As of 8:30 AM on Thursday 30 Oct 2014 (Local Time) from KLAM Reporting Station
Clear Clear  
Wind Chill: 48°   Ceiling: Unl
Heat Index: 48°   Visibility: 10mi
Dew Point: 12°   Wind: 0mph
Humidity: 23%   Direction: NA
Pressure: 30.4"   Gusts: NA
Location:  36.17°N, 106.62°W
Report Text: KLAM 301430Z AUTO 00000KT 10SM CLR 09/M11 A3040 RMK AO2 T00901111
Loading
Personal Weather Stations






























Interactive Weather Map
Tropical Storm Tracking
New forecast layout! Learn more

10-Day Weather Forecast

Advertisements
Track Severe Weather on mobile